sensor_id;sensor_type;location;lat;lon;timestamp;pressure;altitude;pressure_sealevel;temperature;humidity
3250;BME280;1637;42.020;23.992;2024-02-16T00:00:57;93248.16;;;1.02;93.10
3250;BME280;1637;42.020;23.992;2024-02-16T00:03:25;93240.00;;;1.08;93.91
3250;BME280;1637;42.020;23.992;2024-02-16T00:05:52;93242.09;;;0.90;95.00
3250;BME280;1637;42.020;23.992;2024-02-16T00:08:20;93246.38;;;0.94;95.39
3250;BME280;1637;42.020;23.992;2024-02-16T00:10:47;93241.34;;;1.01;95.07
3250;BME280;1637;42.020;23.992;2024-02-16T00:13:14;93184.06;;;0.53;95.40
3250;BME280;1637;42.020;23.992;2024-02-16T00:15:41;93240.66;;;0.92;95.30
3250;BME280;1637;42.020;23.992;2024-02-16T00:18:08;93239.00;;;0.76;95.63
3250;BME280;1637;42.020;23.992;2024-02-16T00:20:35;93240.56;;;0.77;96.59
3250;BME280;1637;42.020;23.992;2024-02-16T00:23:01;93239.47;;;0.78;96.71
3250;BME280;1637;42.020;23.992;2024-02-16T00:25:30;93232.09;;;0.59;97.73
3250;BME280;1637;42.020;23.992;2024-02-16T00:27:56;93245.47;;;0.54;97.94
3250;BME280;1637;42.020;23.992;2024-02-16T00:30:23;93240.44;;;0.61;98.26
3250;BME280;1637;42.020;23.992;2024-02-16T00:32:50;93251.88;;;0.77;97.59
3250;BME280;1637;42.020;23.992;2024-02-16T00:35:18;93238.78;;;0.68;97.48
3250;BME280;1637;42.020;23.992;2024-02-16T00:37:45;93209.66;;;0.41;97.25
3250;BME280;1637;42.020;23.992;2024-02-16T00:40:12;93249.56;;;0.76;96.28
3250;BME280;1637;42.020;23.992;2024-02-16T00:42:40;93244.78;;;0.45;96.64
3250;BME280;1637;42.020;23.992;2024-02-16T00:45:08;93247.78;;;0.67;96.24
3250;BME280;1637;42.020;23.992;2024-02-16T00:47:35;93249.88;;;0.62;96.48
3250;BME280;1637;42.020;23.992;2024-02-16T00:50:02;93242.97;;;0.69;95.50
3250;BME280;1637;42.020;23.992;2024-02-16T00:52:30;93241.38;;;0.44;96.93
3250;BME280;1637;42.020;23.992;2024-02-16T00:54:57;93244.25;;;0.51;97.94
3250;BME280;1637;42.020;23.992;2024-02-16T00:57:24;93235.56;;;0.63;96.40
3250;BME280;1637;42.020;23.992;2024-02-16T00:59:52;93235.13;;;0.49;96.88
3250;BME280;1637;42.020;23.992;2024-02-16T01:02:20;93237.69;;;0.69;96.24
3250;BME280;1637;42.020;23.992;2024-02-16T01:04:47;93234.34;;;0.48;97.07
3250;BME280;1637;42.020;23.992;2024-02-16T01:07:15;93234.38;;;0.15;99.96
3250;BME280;1637;42.020;23.992;2024-02-16T01:09:42;93223.94;;;0.52;97.79
3250;BME280;1637;42.020;23.992;2024-02-16T01:12:09;93232.81;;;0.47;97.13
3250;BME280;1637;42.020;23.992;2024-02-16T01:14:37;93237.31;;;0.47;98.02
3250;BME280;1637;42.020;23.992;2024-02-16T01:17:05;93236.66;;;0.50;97.54
3250;BME280;1637;42.020;23.992;2024-02-16T01:19:32;93222.31;;;0.14;99.02
3250;BME280;1637;42.020;23.992;2024-02-16T01:21:58;93232.28;;;0.09;99.46
3250;BME280;1637;42.020;23.992;2024-02-16T01:24:26;93209.06;;;-0.10;100.00
3250;BME280;1637;42.020;23.992;2024-02-16T01:26:52;93217.28;;;-0.12;100.00
3250;BME280;1637;42.020;23.992;2024-02-16T01:29:19;93230.28;;;0.39;98.09
3250;BME280;1637;42.020;23.992;2024-02-16T01:31:46;93234.00;;;0.05;99.25
3250;BME280;1637;42.020;23.992;2024-02-16T01:34:14;93234.97;;;0.33;97.85
3250;BME280;1637;42.020;23.992;2024-02-16T01:36:41;93236.88;;;0.12;99.23
3250;BME280;1637;42.020;23.992;2024-02-16T01:39:08;93220.69;;;-0.11;99.81
3250;BME280;1637;42.020;23.992;2024-02-16T01:41:38;93225.13;;;-0.24;99.96
3250;BME280;1637;42.020;23.992;2024-02-16T01:44:05;93229.50;;;0.38;98.74
3250;BME280;1637;42.020;23.992;2024-02-16T01:46:33;93228.63;;;0.34;97.40
3250;BME280;1637;42.020;23.992;2024-02-16T01:49:01;93226.78;;;0.47;97.41
3250;BME280;1637;42.020;23.992;2024-02-16T01:51:29;93226.56;;;0.52;96.31
3250;BME280;1637;42.020;23.992;2024-02-16T01:53:56;93227.31;;;0.40;96.14
3250;BME280;1637;42.020;23.992;2024-02-16T01:56:23;93225.47;;;0.08;98.68
3250;BME280;1637;42.020;23.992;2024-02-16T01:58:52;93218.44;;;-0.01;100.00
3250;BME280;1637;42.020;23.992;2024-02-16T02:01:18;93221.56;;;0.26;98.41
3250;BME280;1637;42.020;23.992;2024-02-16T02:03:45;93217.81;;;0.15;97.42
3250;BME280;1637;42.020;23.992;2024-02-16T02:06:12;93222.16;;;0.44;96.16
3250;BME280;1637;42.020;23.992;2024-02-16T02:08:40;93225.16;;;-0.12;98.46
3250;BME280;1637;42.020;23.992;2024-02-16T02:11:07;93211.66;;;-0.22;99.99
3250;BME280;1637;42.020;23.992;2024-02-16T02:13:34;93220.78;;;0.13;98.38
3250;BME280;1637;42.020;23.992;2024-02-16T02:16:02;93225.31;;;-0.71;100.00
3250;BME280;1637;42.020;23.992;2024-02-16T02:18:31;93213.97;;;-0.62;100.00
3250;BME280;1637;42.020;23.992;2024-02-16T02:20:57;93220.38;;;-0.51;100.00
3250;BME280;1637;42.020;23.992;2024-02-16T02:23:25;93219.06;;;-0.87;100.00
3250;BME280;1637;42.020;23.992;2024-02-16T02:25:52;93223.31;;;-0.74;100.00
3250;BME280;1637;42.020;23.992;2024-02-16T02:28:19;93216.97;;;-0.73;100.00
3250;BME280;1637;42.020;23.992;2024-02-16T02:30:49;93219.47;;;-0.76;100.00
3250;BME280;1637;42.020;23.992;2024-02-16T02:33:16;93218.06;;;-0.32;100.00
3250;BME280;1637;42.020;23.992;2024-02-16T02:35:42;93218.06;;;-0.32;100.00
3250;BME280;1637;42.020;23.992;2024-02-16T02:38:09;93224.59;;;-0.80;100.00
3250;BME280;1637;42.020;23.992;2024-02-16T02:40:38;93217.66;;;-0.84;100.00
3250;BME280;1637;42.020;23.992;2024-02-16T02:43:04;93226.66;;;-0.64;100.00
3250;BME280;1637;42.020;23.992;2024-02-16T02:45:31;93228.06;;;-0.67;100.00
3250;BME280;1637;42.020;23.992;2024-02-16T02:47:58;93224.34;;;-0.87;100.00
3250;BME280;1637;42.020;23.992;2024-02-16T02:50:25;93221.91;;;-0.50;100.00
3250;BME280;1637;42.020;23.992;2024-02-16T02:52:52;93233.06;;;-0.74;100.00
3250;BME280;1637;42.020;23.992;2024-02-16T02:55:19;93223.94;;;-0.77;100.00
3250;BME280;1637;42.020;23.992;2024-02-16T02:57:47;93230.59;;;-0.79;100.00
3250;BME280;1637;42.020;23.992;2024-02-16T03:00:14;93234.47;;;-0.77;100.00
3250;BME280;1637;42.020;23.992;2024-02-16T03:02:41;93232.47;;;-0.80;100.00
3250;BME280;1637;42.020;23.992;2024-02-16T03:05:09;93236.78;;;-0.75;100.00
3250;BME280;1637;42.020;23.992;2024-02-16T03:07:36;93241.75;;;-0.82;100.00
3250;BME280;1637;42.020;23.992;2024-02-16T03:10:05;93198.34;;;-1.18;100.00
3250;BME280;1637;42.020;23.992;2024-02-16T03:12:34;93241.22;;;-0.67;100.00
3250;BME280;1637;42.020;23.992;2024-02-16T03:15:03;93238.16;;;-0.27;100.00
3250;BME280;1637;42.020;23.992;2024-02-16T03:17:30;93293.97;;;-0.63;100.00
3250;BME280;1637;42.020;23.992;2024-02-16T03:19:57;93251.50;;;-0.83;100.00
3250;BME280;1637;42.020;23.992;2024-02-16T03:22:23;93253.09;;;-0.40;100.00
3250;BME280;1637;42.020;23.992;2024-02-16T03:24:50;93258.25;;;-0.44;100.00
3250;BME280;1637;42.020;23.992;2024-02-16T03:27:17;93260.19;;;-0.61;100.00
3250;BME280;1637;42.020;23.992;2024-02-16T03:29:43;93255.81;;;-0.78;100.00
3250;BME280;1637;42.020;23.992;2024-02-16T03:32:12;93253.09;;;-0.40;100.00
3250;BME280;1637;42.020;23.992;2024-02-16T03:34:38;93262.59;;;-0.06;100.00
3250;BME280;1637;42.020;23.992;2024-02-16T03:37:05;93262.09;;;-0.20;100.00
3250;BME280;1637;42.020;23.992;2024-02-16T03:39:32;93256.50;;;-0.19;100.00
3250;BME280;1637;42.020;23.992;2024-02-16T03:41:58;93243.78;;;-0.17;99.82
3250;BME280;1637;42.020;23.992;2024-02-16T03:44:25;93258.91;;;-0.26;100.00
3250;BME280;1637;42.020;23.992;2024-02-16T03:46:52;93255.94;;;-0.45;100.00
3250;BME280;1637;42.020;23.992;2024-02-16T03:49:20;93257.84;;;-0.13;100.00
3250;BME280;1637;42.020;23.992;2024-02-16T03:51:47;93265.44;;;-0.32;100.00
3250;BME280;1637;42.020;23.992;2024-02-16T03:54:14;93261.94;;;-0.65;100.00
3250;BME280;1637;42.020;23.992;2024-02-16T03:56:41;93267.91;;;-0.56;100.00
3250;BME280;1637;42.020;23.992;2024-02-16T03:59:07;93268.44;;;-0.63;100.00
3250;BME280;1637;42.020;23.992;2024-02-16T04:01:35;93272.38;;;-0.78;100.00
3250;BME280;1637;42.020;23.992;2024-02-16T04:04:02;93270.03;;;-0.71;100.00
3250;BME280;1637;42.020;23.992;2024-02-16T04:06:30;93268.44;;;-0.63;100.00
3250;BME280;1637;42.020;23.992;2024-02-16T04:08:57;93267.31;;;-0.62;100.00
3250;BME280;1637;42.020;23.992;2024-02-16T04:11:24;93259.59;;;-0.88;100.00
3250;BME280;1637;42.020;23.992;2024-02-16T04:13:54;93266.97;;;-0.81;100.00
3250;BME280;1637;42.020;23.992;2024-02-16T04:16:21;93277.63;;;-0.78;100.00
3250;BME280;1637;42.020;23.992;2024-02-16T04:18:50;93268.66;;;-0.77;100.00
3250;BME280;1637;42.020;23.992;2024-02-16T04:21:16;93261.31;;;-0.92;100.00
3250;BME280;1637;42.020;23.992;2024-02-16T04:23:45;93268.28;;;-0.96;100.00
3250;BME280;1637;42.020;23.992;2024-02-16T04:26:11;93277.72;;;-0.95;100.00
3250;BME280;1637;42.020;23.992;2024-02-16T04:28:39;93270.13;;;-0.88;100.00
3250;BME280;1637;42.020;23.992;2024-02-16T04:31:06;93273.41;;;-0.99;100.00
3250;BME280;1637;42.020;23.992;2024-02-16T04:33:32;93267.78;;;-1.19;100.00
3250;BME280;1637;42.020;23.992;2024-02-16T04:35:59;93277.56;;;-1.28;100.00
3250;BME280;1637;42.020;23.992;2024-02-16T04:38:26;93274.50;;;-1.39;100.00
3250;BME280;1637;42.020;23.992;2024-02-16T04:40:54;93282.44;;;-1.18;100.00
3250;BME280;1637;42.020;23.992;2024-02-16T04:43:21;93279.00;;;-0.72;100.00
3250;BME280;1637;42.020;23.992;2024-02-16T04:45:48;93289.19;;;-0.70;100.00
3250;BME280;1637;42.020;23.992;2024-02-16T04:48:14;93283.38;;;-0.55;100.00
3250;BME280;1637;42.020;23.992;2024-02-16T04:50:41;93286.66;;;-0.37;100.00
3250;BME280;1637;42.020;23.992;2024-02-16T04:53:08;93280.97;;;-0.18;100.00
3250;BME280;1637;42.020;23.992;2024-02-16T04:55:35;93282.78;;;-0.60;100.00
3250;BME280;1637;42.020;23.992;2024-02-16T04:58:03;93281.81;;;-1.06;100.00
3250;BME280;1637;42.020;23.992;2024-02-16T05:00:34;93283.53;;;-1.10;100.00
3250;BME280;1637;42.020;23.992;2024-02-16T05:03:01;93282.06;;;-0.99;100.00
3250;BME280;1637;42.020;23.992;2024-02-16T05:05:28;93287.38;;;-1.08;100.00
3250;BME280;1637;42.020;23.992;2024-02-16T05:07:56;93289.88;;;-1.20;100.00
3250;BME280;1637;42.020;23.992;2024-02-16T05:10:23;93285.75;;;-1.29;100.00
3250;BME280;1637;42.020;23.992;2024-02-16T05:12:49;93289.03;;;-1.41;100.00
3250;BME280;1637;42.020;23.992;2024-02-16T05:15:18;93292.47;;;-1.11;100.00
3250;BME280;1637;42.020;23.992;2024-02-16T05:17:47;93261.28;;;-1.21;100.00
3250;BME280;1637;42.020;23.992;2024-02-16T05:20:14;93292.94;;;-1.09;100.00
3250;BME280;1637;42.020;23.992;2024-02-16T05:22:42;93293.63;;;-0.91;100.00
3250;BME280;1637;42.020;23.992;2024-02-16T05:25:09;93295.22;;;-0.99;100.00
3250;BME280;1637;42.020;23.992;2024-02-16T05:27:36;93301.16;;;-1.19;100.00
3250;BME280;1637;42.020;23.992;2024-02-16T05:30:05;93304.25;;;-1.17;100.00
3250;BME280;1637;42.020;23.992;2024-02-16T05:32:35;93301.88;;;-1.01;100.00
3250;BME280;1637;42.020;23.992;2024-02-16T05:35:03;93300.22;;;-1.06;100.00
3250;BME280;1637;42.020;23.992;2024-02-16T05:37:37;93304.28;;;-1.26;100.00
3250;BME280;1637;42.020;23.992;2024-02-16T05:40:07;93310.34;;;-0.87;100.00
3250;BME280;1637;42.020;23.992;2024-02-16T05:42:45;93308.28;;;-0.82;100.00
3250;BME280;1637;42.020;23.992;2024-02-16T05:45:13;93315.69;;;-0.75;100.00
3250;BME280;1637;42.020;23.992;2024-02-16T05:47:41;93318.97;;;-0.28;100.00
3250;BME280;1637;42.020;23.992;2024-02-16T05:50:08;93316.41;;;0.05;100.00
3250;BME280;1637;42.020;23.992;2024-02-16T05:52:37;93324.38;;;-0.04;100.00
3250;BME280;1637;42.020;23.992;2024-02-16T05:55:04;93325.47;;;0.16;100.00
3250;BME280;1637;42.020;23.992;2024-02-16T05:57:31;93321.75;;;0.17;99.24
3250;BME280;1637;42.020;23.992;2024-02-16T05:59:58;93320.53;;;0.15;99.18
3250;BME280;1637;42.020;23.992;2024-02-16T06:02:25;93329.59;;;1.53;100.00
3250;BME280;1637;42.020;23.992;2024-02-16T06:04:54;93332.91;;;0.68;99.58
3250;BME280;1637;42.020;23.992;2024-02-16T06:07:21;93332.03;;;0.43;98.41
3250;BME280;1637;42.020;23.992;2024-02-16T06:09:48;93328.28;;;0.32;97.59
3250;BME280;1637;42.020;23.992;2024-02-16T06:12:15;93337.22;;;0.40;97.49
3250;BME280;1637;42.020;23.992;2024-02-16T06:14:42;93341.69;;;1.78;100.00
3250;BME280;1637;42.020;23.992;2024-02-16T06:17:09;93347.41;;;2.32;99.51
3250;BME280;1637;42.020;23.992;2024-02-16T06:19:36;93347.50;;;2.48;88.82
3250;BME280;1637;42.020;23.992;2024-02-16T06:22:04;93346.13;;;2.82;83.00
3250;BME280;1637;42.020;23.992;2024-02-16T06:24:31;93345.53;;;2.45;81.67
3250;BME280;1637;42.020;23.992;2024-02-16T06:26:58;93334.34;;;1.59;86.03
3250;BME280;1637;42.020;23.992;2024-02-16T06:29:24;93346.88;;;1.50;87.97
3250;BME280;1637;42.020;23.992;2024-02-16T06:31:51;93345.56;;;1.56;88.36
3250;BME280;1637;42.020;23.992;2024-02-16T06:34:19;93343.47;;;1.50;89.54
3250;BME280;1637;42.020;23.992;2024-02-16T06:36:45;93345.47;;;1.65;89.02
3250;BME280;1637;42.020;23.992;2024-02-16T06:39:15;93348.00;;;1.61;88.81
3250;BME280;1637;42.020;23.992;2024-02-16T06:41:44;93348.31;;;1.48;89.67
3250;BME280;1637;42.020;23.992;2024-02-16T06:44:11;93348.38;;;1.02;90.55
3250;BME280;1637;42.020;23.992;2024-02-16T06:46:38;93352.44;;;1.12;90.73
3250;BME280;1637;42.020;23.992;2024-02-16T06:49:05;93357.56;;;1.54;89.94
3250;BME280;1637;42.020;23.992;2024-02-16T06:51:32;93384.28;;;1.77;87.95
3250;BME280;1637;42.020;23.992;2024-02-16T06:53:59;93353.63;;;2.12;85.80
3250;BME280;1637;42.020;23.992;2024-02-16T06:56:27;93331.38;;;2.25;84.97
3250;BME280;1637;42.020;23.992;2024-02-16T06:58:54;93361.06;;;3.50;79.56
3250;BME280;1637;42.020;23.992;2024-02-16T07:01:21;93362.91;;;5.08;74.29
3250;BME280;1637;42.020;23.992;2024-02-16T07:03:47;93372.06;;;6.55;68.38
3250;BME280;1637;42.020;23.992;2024-02-16T07:06:14;93367.63;;;5.61;69.23
3250;BME280;1637;42.020;23.992;2024-02-16T07:08:41;93366.78;;;4.92;71.01
3250;BME280;1637;42.020;23.992;2024-02-16T07:11:09;93367.94;;;4.36;74.04
3250;BME280;1637;42.020;23.992;2024-02-16T07:13:39;93361.00;;;3.97;75.68
3250;BME280;1637;42.020;23.992;2024-02-16T07:16:08;93351.56;;;3.80;76.36
3250;BME280;1637;42.020;23.992;2024-02-16T07:18:35;93362.88;;;3.96;76.86
3250;BME280;1637;42.020;23.992;2024-02-16T07:21:02;93361.81;;;4.17;75.11
3250;BME280;1637;42.020;23.992;2024-02-16T07:23:29;93361.09;;;4.00;76.45
3250;BME280;1637;42.020;23.992;2024-02-16T07:25:56;93358.56;;;3.88;76.53
3250;BME280;1637;42.020;23.992;2024-02-16T07:28:23;93353.59;;;3.87;77.68
3250;BME280;1637;42.020;23.992;2024-02-16T07:30:52;93357.56;;;4.66;74.73
3250;BME280;1637;42.020;23.992;2024-02-16T07:33:19;93364.38;;;4.87;73.09
3250;BME280;1637;42.020;23.992;2024-02-16T07:35:46;93363.88;;;5.42;72.32
3250;BME280;1637;42.020;23.992;2024-02-16T07:38:13;93368.97;;;5.74;70.42
3250;BME280;1637;42.020;23.992;2024-02-16T07:40:40;93364.91;;;6.33;68.08
3250;BME280;1637;42.020;23.992;2024-02-16T07:43:07;93370.88;;;6.82;66.62
3250;BME280;1637;42.020;23.992;2024-02-16T07:45:33;93365.63;;;6.03;67.57
3250;BME280;1637;42.020;23.992;2024-02-16T07:48:02;93282.25;;;5.39;69.21
3250;BME280;1637;42.020;23.992;2024-02-16T07:50:30;93351.53;;;5.76;69.78
3250;BME280;1637;42.020;23.992;2024-02-16T07:52:57;93355.97;;;5.46;71.37
3250;BME280;1637;42.020;23.992;2024-02-16T07:55:24;93360.75;;;6.62;68.85
3250;BME280;1637;42.020;23.992;2024-02-16T07:57:51;93354.44;;;7.47;65.04
3250;BME280;1637;42.020;23.992;2024-02-16T08:00:18;93359.22;;;7.72;63.90
3250;BME280;1637;42.020;23.992;2024-02-16T08:02:45;93354.34;;;7.81;64.45
3250;BME280;1637;42.020;23.992;2024-02-16T08:05:14;93356.88;;;8.14;62.71
3250;BME280;1637;42.020;23.992;2024-02-16T08:07:41;93361.38;;;7.18;66.62
3250;BME280;1637;42.020;23.992;2024-02-16T08:10:08;93355.44;;;8.27;63.65
3250;BME280;1637;42.020;23.992;2024-02-16T08:12:35;93352.09;;;9.28;60.68
3250;BME280;1637;42.020;23.992;2024-02-16T08:15:04;93334.22;;;9.92;56.82
3250;BME280;1637;42.020;23.992;2024-02-16T08:17:32;93349.25;;;8.82;61.06
3250;BME280;1637;42.020;23.992;2024-02-16T08:19:59;93352.50;;;9.44;59.07
3250;BME280;1637;42.020;23.992;2024-02-16T08:22:27;93360.88;;;10.74;56.86
3250;BME280;1637;42.020;23.992;2024-02-16T08:24:54;93357.38;;;11.68;54.56
3250;BME280;1637;42.020;23.992;2024-02-16T08:27:21;93346.47;;;11.38;55.60
3250;BME280;1637;42.020;23.992;2024-02-16T08:29:48;93358.44;;;11.85;53.57
3250;BME280;1637;42.020;23.992;2024-02-16T08:32:14;93353.94;;;10.94;57.72
3250;BME280;1637;42.020;23.992;2024-02-16T08:34:42;93351.59;;;11.77;54.32
3250;BME280;1637;42.020;23.992;2024-02-16T08:37:09;93353.78;;;11.26;54.94
3250;BME280;1637;42.020;23.992;2024-02-16T08:39:38;93359.31;;;11.64;55.21
3250;BME280;1637;42.020;23.992;2024-02-16T08:42:06;93350.94;;;10.78;57.25
3250;BME280;1637;42.020;23.992;2024-02-16T08:44:34;93359.56;;;12.77;51.21
3250;BME280;1637;42.020;23.992;2024-02-16T08:47:01;93351.53;;;12.73;51.35
3250;BME280;1637;42.020;23.992;2024-02-16T08:49:28;93354.50;;;12.82;48.80
3250;BME280;1637;42.020;23.992;2024-02-16T08:51:56;93358.22;;;12.92;48.27
3250;BME280;1637;42.020;23.992;2024-02-16T08:54:22;93357.56;;;13.18;50.38
3250;BME280;1637;42.020;23.992;2024-02-16T08:56:53;93370.06;;;14.16;47.19
3250;BME280;1637;42.020;23.992;2024-02-16T08:59:20;93354.31;;;13.34;47.75
3250;BME280;1637;42.020;23.992;2024-02-16T09:01:46;93346.03;;;14.02;47.57
3250;BME280;1637;42.020;23.992;2024-02-16T09:04:13;93353.59;;;12.58;51.22
3250;BME280;1637;42.020;23.992;2024-02-16T09:06:41;93356.22;;;12.65;50.69
3250;BME280;1637;42.020;23.992;2024-02-16T09:09:07;93359.56;;;13.11;50.59
3250;BME280;1637;42.020;23.992;2024-02-16T09:11:34;93360.16;;;12.13;50.77
3250;BME280;1637;42.020;23.992;2024-02-16T09:14:02;93327.44;;;11.73;52.55
3250;BME280;1637;42.020;23.992;2024-02-16T09:16:30;93355.47;;;12.24;52.82
3250;BME280;1637;42.020;23.992;2024-02-16T09:18:58;93360.28;;;12.81;50.98
3250;BME280;1637;42.020;23.992;2024-02-16T09:21:25;93353.31;;;12.04;52.59
3250;BME280;1637;42.020;23.992;2024-02-16T09:23:54;93358.06;;;12.72;51.68
3250;BME280;1637;42.020;23.992;2024-02-16T09:26:24;93351.72;;;13.27;49.16
3250;BME280;1637;42.020;23.992;2024-02-16T09:28:52;93351.94;;;12.71;51.81
3250;BME280;1637;42.020;23.992;2024-02-16T09:31:21;93342.53;;;13.51;49.49
3250;BME280;1637;42.020;23.992;2024-02-16T09:33:47;93353.22;;;13.58;47.10
3250;BME280;1637;42.020;23.992;2024-02-16T09:36:17;93349.88;;;13.51;47.13
3250;BME280;1637;42.020;23.992;2024-02-16T09:38:44;93340.31;;;13.73;46.90
3250;BME280;1637;42.020;23.992;2024-02-16T09:41:11;93339.41;;;12.92;48.18
3250;BME280;1637;42.020;23.992;2024-02-16T09:43:40;93333.09;;;11.89;50.60
3250;BME280;1637;42.020;23.992;2024-02-16T09:46:08;93326.75;;;10.96;51.58
3250;BME280;1637;42.020;23.992;2024-02-16T09:48:39;93329.75;;;11.75;49.34
3250;BME280;1637;42.020;23.992;2024-02-16T09:51:06;93324.00;;;12.96;47.05
3250;BME280;1637;42.020;23.992;2024-02-16T09:53:34;93323.22;;;14.10;44.06
3250;BME280;1637;42.020;23.992;2024-02-16T09:56:01;93328.47;;;15.43;41.73
3250;BME280;1637;42.020;23.992;2024-02-16T09:58:28;93314.06;;;11.69;48.26
3250;BME280;1637;42.020;23.992;2024-02-16T10:00:55;93309.06;;;11.71;51.07
3250;BME280;1637;42.020;23.992;2024-02-16T10:03:23;93294.47;;;11.17;51.56
3250;BME280;1637;42.020;23.992;2024-02-16T10:05:52;93297.91;;;12.25;50.17
3250;BME280;1637;42.020;23.992;2024-02-16T10:08:19;93292.34;;;12.05;50.72
3250;BME280;1637;42.020;23.992;2024-02-16T10:10:46;93296.88;;;10.94;51.29
3250;BME280;1637;42.020;23.992;2024-02-16T10:13:15;93286.88;;;12.12;50.61
3250;BME280;1637;42.020;23.992;2024-02-16T10:15:42;93292.06;;;13.86;46.54
3250;BME280;1637;42.020;23.992;2024-02-16T10:18:10;93287.13;;;13.81;47.18
3250;BME280;1637;42.020;23.992;2024-02-16T10:20:38;93297.50;;;14.29;45.05
3250;BME280;1637;42.020;23.992;2024-02-16T10:23:07;93285.16;;;14.08;45.87
3250;BME280;1637;42.020;23.992;2024-02-16T10:25:35;93281.97;;;14.36;46.61
3250;BME280;1637;42.020;23.992;2024-02-16T10:28:06;93276.22;;;14.58;53.21
3250;BME280;1637;42.020;23.992;2024-02-16T10:59:04;93246.44;;;13.75;48.91
3250;BME280;1637;42.020;23.992;2024-02-16T11:01:37;93237.09;;;13.33;50.40
3250;BME280;1637;42.020;23.992;2024-02-16T11:04:05;93234.41;;;12.42;52.86
3250;BME280;1637;42.020;23.992;2024-02-16T11:06:47;93237.06;;;12.76;51.86
3250;BME280;1637;42.020;23.992;2024-02-16T11:09:25;93227.00;;;11.74;54.21
3250;BME280;1637;42.020;23.992;2024-02-16T11:11:52;93202.22;;;12.38;52.18
3250;BME280;1637;42.020;23.992;2024-02-16T11:39:27;93198.53;;;12.25;53.36
3250;BME280;1637;42.020;23.992;2024-02-16T11:42:02;93166.19;;;12.66;53.17
3250;BME280;1637;42.020;23.992;2024-02-16T11:53:09;93189.81;;;12.48;53.98
3250;BME280;1637;42.020;23.992;2024-02-16T11:55:36;93198.19;;;13.11;53.50
3250;BME280;1637;42.020;23.992;2024-02-16T11:58:04;93156.47;;;13.02;51.07
3250;BME280;1637;42.020;23.992;2024-02-16T12:00:31;93176.66;;;12.87;52.05
3250;BME280;1637;42.020;23.992;2024-02-16T12:03:01;93182.94;;;13.31;51.82
3250;BME280;1637;42.020;23.992;2024-02-16T12:05:28;93181.38;;;13.33;50.81
3250;BME280;1637;42.020;23.992;2024-02-16T12:07:57;93165.22;;;12.80;52.12
3250;BME280;1637;42.020;23.992;2024-02-16T12:10:26;93168.00;;;12.72;53.67
3250;BME280;1637;42.020;23.992;2024-02-16T12:12:54;93174.38;;;12.86;51.26
3250;BME280;1637;42.020;23.992;2024-02-16T12:15:21;93145.34;;;12.73;51.82
3250;BME280;1637;42.020;23.992;2024-02-16T12:17:58;93165.78;;;12.94;51.59
3250;BME280;1637;42.020;23.992;2024-02-16T12:20:25;93064.75;;;12.16;51.54
3250;BME280;1637;42.020;23.992;2024-02-16T12:22:52;93132.31;;;11.77;53.19
3250;BME280;1637;42.020;23.992;2024-02-16T12:25:18;93157.69;;;12.07;53.63
3250;BME280;1637;42.020;23.992;2024-02-16T12:27:46;93134.13;;;12.21;52.54
3250;BME280;1637;42.020;23.992;2024-02-16T12:30:14;93149.44;;;12.24;53.23
3250;BME280;1637;42.020;23.992;2024-02-16T12:32:41;93151.97;;;12.04;54.02
3250;BME280;1637;42.020;23.992;2024-02-16T12:35:08;93147.53;;;12.52;53.00
3250;BME280;1637;42.020;23.992;2024-02-16T12:37:35;93146.81;;;12.78;52.95
3250;BME280;1637;42.020;23.992;2024-02-16T12:40:03;93156.56;;;12.95;51.30
3250;BME280;1637;42.020;23.992;2024-02-16T12:42:31;93146.81;;;12.78;51.81
3250;BME280;1637;42.020;23.992;2024-02-16T12:44:59;93159.47;;;12.51;52.42
3250;BME280;1637;42.020;23.992;2024-02-16T12:47:26;93159.38;;;12.58;52.93
3250;BME280;1637;42.020;23.992;2024-02-16T12:49:55;93152.28;;;12.71;51.82
3250;BME280;1637;42.020;23.992;2024-02-16T12:52:22;93157.84;;;12.57;52.58
3250;BME280;1637;42.020;23.992;2024-02-16T12:54:49;93157.31;;;12.38;53.77
3250;BME280;1637;42.020;23.992;2024-02-16T12:57:16;93156.72;;;12.54;52.75
3250;BME280;1637;42.020;23.992;2024-02-16T12:59:43;93147.91;;;12.54;53.43
3250;BME280;1637;42.020;23.992;2024-02-16T13:02:11;93161.22;;;12.34;53.84
3250;BME280;1637;42.020;23.992;2024-02-16T13:04:38;93155.66;;;12.48;53.53
3250;BME280;1637;42.020;23.992;2024-02-16T13:07:05;93144.84;;;12.25;52.84
3250;BME280;1637;42.020;23.992;2024-02-16T13:09:32;93163.31;;;12.19;54.07
3250;BME280;1637;42.020;23.992;2024-02-16T13:11:59;93156.22;;;12.02;54.68
3250;BME280;1637;42.020;23.992;2024-02-16T13:14:25;93158.44;;;12.07;54.51
3250;BME280;1637;42.020;23.992;2024-02-16T13:16:53;93157.28;;;12.42;54.33
3250;BME280;1637;42.020;23.992;2024-02-16T13:19:21;93160.81;;;12.35;53.75
3250;BME280;1637;42.020;23.992;2024-02-16T13:21:47;93160.66;;;12.16;53.62
3250;BME280;1637;42.020;23.992;2024-02-16T13:24:16;93159.84;;;12.19;53.97
3250;BME280;1637;42.020;23.992;2024-02-16T13:26:42;93166.31;;;12.25;55.49
3250;BME280;1637;42.020;23.992;2024-02-16T13:29:09;93134.84;;;12.25;55.76
3250;BME280;1637;42.020;23.992;2024-02-16T13:31:36;93150.63;;;12.20;54.92
3250;BME280;1637;42.020;23.992;2024-02-16T13:34:02;93171.88;;;12.07;55.11
3250;BME280;1637;42.020;23.992;2024-02-16T13:36:31;93168.00;;;12.08;54.73
3250;BME280;1637;42.020;23.992;2024-02-16T13:38:57;93150.22;;;11.87;56.70
3250;BME280;1637;42.020;23.992;2024-02-16T13:41:25;93108.16;;;11.74;55.87
3250;BME280;1637;42.020;23.992;2024-02-16T13:43:52;93085.25;;;11.65;55.26
3250;BME280;1637;42.020;23.992;2024-02-16T13:46:19;93150.56;;;11.93;54.89
3250;BME280;1637;42.020;23.992;2024-02-16T13:48:47;93166.28;;;11.91;56.70
3250;BME280;1637;42.020;23.992;2024-02-16T13:51:14;93175.28;;;12.11;56.39
3250;BME280;1637;42.020;23.992;2024-02-16T13:53:42;93060.75;;;11.26;55.89
3250;BME280;1637;42.020;23.992;2024-02-16T13:56:09;93103.19;;;11.38;55.65
3250;BME280;1637;42.020;23.992;2024-02-16T13:58:36;93170.31;;;12.10;55.13
3250;BME280;1637;42.020;23.992;2024-02-16T14:01:04;93165.09;;;11.95;55.41
3250;BME280;1637;42.020;23.992;2024-02-16T14:03:32;93183.94;;;11.88;55.31
3250;BME280;1637;42.020;23.992;2024-02-16T14:05:59;93180.75;;;12.04;54.88
3250;BME280;1637;42.020;23.992;2024-02-16T14:08:26;93149.09;;;11.85;55.84
3250;BME280;1637;42.020;23.992;2024-02-16T14:10:54;93180.28;;;12.09;55.88
3250;BME280;1637;42.020;23.992;2024-02-16T14:13:22;93175.69;;;12.10;56.05
3250;BME280;1637;42.020;23.992;2024-02-16T14:15:50;93181.50;;;12.04;55.53